createdAt,value
2022-11-29T12:02:49.776Z,24.98
2022-11-29T12:05:19.505Z,28.70
2022-11-29T12:10:39.447Z,26.23
2022-11-29T12:13:08.545Z,26.92
2022-11-29T12:15:39.753Z,25.92
2022-11-29T12:18:12.761Z,23.83
2022-11-29T12:20:42.577Z,28.67
2022-11-29T12:23:23.937Z,23.20
2022-11-29T12:25:54.668Z,26.10
2022-11-29T12:28:24.070Z,26.25
2022-11-29T12:31:07.226Z,29.88
2022-11-29T12:33:45.825Z,30.92
2022-11-29T12:36:28.306Z,31.13
2022-11-29T12:39:07.726Z,30.77
2022-11-29T12:41:48.268Z,25.33
2022-11-29T12:44:29.410Z,29.67
2022-11-29T12:47:35.654Z,25.67
2022-11-29T12:50:07.452Z,28.40
2022-11-29T12:52:44.819Z,26.95
2022-11-29T12:55:20.056Z,27.10
2022-11-29T12:57:54.152Z,29.30
2022-11-29T13:00:21.306Z,25.77
2022-11-29T13:02:58.671Z,33.15
2022-11-29T13:05:40.610Z,23.20
2022-11-29T13:08:19.706Z,27.80
2022-11-29T13:10:59.569Z,23.88
2022-11-29T13:13:37.178Z,29.50
2022-11-29T13:16:08.565Z,29.25
2022-11-29T13:18:42.241Z,26.23
2022-11-29T13:21:14.905Z,37.20
2022-11-29T13:26:40.376Z,25.00
2022-11-29T13:29:12.435Z,31.55
2022-11-29T13:31:39.740Z,26.45
2022-11-29T13:34:09.729Z,27.88
2022-11-29T13:36:48.045Z,29.27
2022-11-29T13:39:36.131Z,28.42
2022-11-29T13:42:10.400Z,26.05
2022-11-29T13:44:46.476Z,26.95
2022-11-29T13:47:15.762Z,29.90
2022-11-29T13:49:54.372Z,21.58
2022-11-29T13:52:38.967Z,29.92
2022-11-29T13:55:23.333Z,27.88
2022-11-29T14:00:50.099Z,27.35
2022-11-29T14:03:28.503Z,19.48
2022-11-29T14:06:04.586Z,31.83
2022-11-29T14:09:01.925Z,30.42
2022-11-29T14:11:24.343Z,32.67
2022-11-29T14:13:54.018Z,28.55
2022-11-29T14:16:31.641Z,30.42
2022-11-29T14:19:05.752Z,30.80
2022-11-29T14:22:19.093Z,30.42
2022-11-29T14:25:43.255Z,30.90
2022-11-29T14:28:30.352Z,27.45
2022-11-29T14:30:58.427Z,31.15
2022-11-29T14:33:38.007Z,29.15
2022-11-29T14:36:25.492Z,29.33
2022-11-29T14:39:01.724Z,31.15
2022-11-29T14:41:39.107Z,33.05
2022-11-29T14:44:17.658Z,36.03
2022-11-29T14:46:45.467Z,31.77
2022-11-29T14:49:22.329Z,32.38
2022-11-29T14:52:18.900Z,31.42
2022-11-29T14:54:55.441Z,38.60
2022-11-29T14:58:04.989Z,30.52
2022-11-29T15:00:42.146Z,28.05
2022-11-29T15:03:12.262Z,31.08
2022-11-29T15:05:42.227Z,29.27
2022-11-29T15:08:15.561Z,27.58
2022-11-29T15:10:47.629Z,29.08
2022-11-29T15:13:22.442Z,33.67
2022-11-29T15:16:17.038Z,32.47
2022-11-29T15:19:09.965Z,29.52
2022-11-29T15:21:46.536Z,26.58
2022-11-29T15:24:15.103Z,36.83
2022-11-29T15:26:55.248Z,34.47
2022-11-29T15:29:22.309Z,34.00
2022-11-29T15:31:53.712Z,35.17
2022-11-29T15:34:23.083Z,37.63
2022-11-29T15:36:49.683Z,32.13
2022-11-29T15:39:28.365Z,31.55
2022-11-29T15:42:01.281Z,34.60
2022-11-29T15:44:27.931Z,35.55
2022-11-29T15:46:55.929Z,34.65
2022-11-29T15:49:24.777Z,30.48
2022-11-29T15:51:56.834Z,32.65
2022-11-29T15:54:30.790Z,28.95
2022-11-29T15:57:00.804Z,36.10
2022-11-29T15:59:33.141Z,33.00
2022-11-29T16:02:05.335Z,37.80
2022-11-29T16:04:32.316Z,35.00
2022-11-29T16:06:58.934Z,37.53
2022-11-29T16:09:31.481Z,28.42
2022-11-29T16:11:58.632Z,34.28
2022-11-29T16:14:26.434Z,38.95
2022-11-29T16:16:55.739Z,30.60
2022-11-29T16:19:30.009Z,43.72
2022-11-29T16:22:02.669Z,35.30
2022-11-29T16:24:29.585Z,37.42
2022-11-29T16:26:56.168Z,38.72
2022-11-29T16:29:28.554Z,34.97
2022-11-29T16:31:55.474Z,38.33
2022-11-29T16:34:27.594Z,40.33
2022-11-29T16:37:05.305Z,40.42
2022-11-29T16:39:34.929Z,43.83
2022-11-29T16:42:06.204Z,32.63
2022-11-29T16:45:00.152Z,46.75
2022-11-29T16:47:29.088Z,49.10
2022-11-29T16:50:13.090Z,52.75
2022-11-29T16:52:39.645Z,38.83
2022-11-29T16:55:06.683Z,37.13
2022-11-29T16:57:33.749Z,40.40
2022-11-29T17:00:00.270Z,33.42
2022-11-29T17:02:28.771Z,44.47
2022-11-29T17:04:55.370Z,38.90
2022-11-29T17:07:28.389Z,33.65
2022-11-29T17:09:56.183Z,41.15
2022-11-29T17:12:22.686Z,39.00
2022-11-29T17:14:49.314Z,40.40
2022-11-29T17:17:17.774Z,43.58
2022-11-29T17:19:44.507Z,45.03
2022-11-29T17:22:11.764Z,43.50
2022-11-29T17:24:44.741Z,40.65
2022-11-29T17:27:14.111Z,35.92
2022-11-29T17:29:40.609Z,37.58
2022-11-29T17:32:07.156Z,37.92
2022-11-29T17:34:33.708Z,37.95
2022-11-29T17:37:00.184Z,60.92
2022-11-29T17:39:26.673Z,38.53
2022-11-29T17:41:55.056Z,40.47
2022-11-29T17:44:21.548Z,37.72
2022-11-29T17:46:48.072Z,37.25
2022-11-29T17:49:14.567Z,32.65
2022-11-29T17:51:57.451Z,36.88
2022-11-29T17:54:24.053Z,34.35
2022-11-29T17:56:50.939Z,36.63
2022-11-29T17:59:19.007Z,39.72
2022-11-29T18:01:45.566Z,39.53
2022-11-29T18:04:12.089Z,34.92
2022-11-29T18:06:40.627Z,37.92
2022-11-29T18:09:09.643Z,31.77
2022-11-29T18:11:46.403Z,36.85
2022-11-29T18:14:15.179Z,40.00
2022-11-29T18:16:43.174Z,29.08
2022-11-29T18:19:12.651Z,42.15
2022-11-29T18:21:39.746Z,43.60
2022-11-29T18:24:07.092Z,35.47
2022-11-29T18:26:34.912Z,35.78
2022-11-29T18:29:01.883Z,37.30
2022-11-29T18:31:30.630Z,46.13
2022-11-29T18:34:00.421Z,38.60
2022-11-29T18:36:28.595Z,35.78
2022-11-29T18:38:56.761Z,34.67
2022-11-29T18:41:24.371Z,35.80
2022-11-29T18:43:56.991Z,37.58
2022-11-29T18:46:23.754Z,37.03
2022-11-29T18:48:50.371Z,37.05
2022-11-29T18:51:19.908Z,40.40
2022-11-29T18:53:46.836Z,42.78
2022-11-29T18:56:14.976Z,37.35
2022-11-29T18:58:41.882Z,37.05
2022-11-29T19:01:10.305Z,42.65
2022-11-29T19:03:39.020Z,42.42
2022-11-29T19:06:07.623Z,36.63
2022-11-29T19:08:35.698Z,35.60
2022-11-29T19:11:04.288Z,34.45
2022-11-29T19:13:30.810Z,37.10
2022-11-29T19:15:57.332Z,38.17
2022-11-29T19:18:23.982Z,38.90
2022-11-29T19:20:50.784Z,40.92
2022-11-29T19:23:17.279Z,39.97
2022-11-29T19:25:45.130Z,46.28
2022-11-29T19:28:14.315Z,40.20
2022-11-29T19:30:41.267Z,40.47
2022-11-29T19:33:07.871Z,37.50
2022-11-29T19:35:34.833Z,33.58
2022-11-29T19:38:01.317Z,36.53
2022-11-29T19:40:27.889Z,44.60
2022-11-29T19:42:55.753Z,41.75
2022-11-29T19:45:22.289Z,34.85
2022-11-29T19:47:48.780Z,39.85
2022-11-29T19:50:15.490Z,38.58
2022-11-29T19:52:41.976Z,42.70
2022-11-29T19:55:09.269Z,43.92
2022-11-29T19:57:35.763Z,42.10
2022-11-29T20:00:04.037Z,46.13
2022-11-29T20:02:30.684Z,37.35
2022-11-29T20:04:57.328Z,39.88
2022-11-29T20:07:24.112Z,46.53
2022-11-29T20:09:50.630Z,44.25
2022-11-29T20:12:17.097Z,36.60
2022-11-29T20:14:43.581Z,46.97
2022-11-29T20:17:11.441Z,43.13
2022-11-29T20:19:38.059Z,40.97
2022-11-29T20:22:05.192Z,37.97
2022-11-29T20:24:38.220Z,40.38
2022-11-29T20:27:06.748Z,41.58
2022-11-29T20:29:33.491Z,45.83
2022-11-29T20:31:59.973Z,41.35
2022-11-29T20:34:28.094Z,41.63
2022-11-29T20:37:26.852Z,40.15
2022-11-29T20:39:57.821Z,42.33
2022-11-29T20:42:52.570Z,42.58
2022-11-29T20:45:19.563Z,40.72
2022-11-29T20:47:50.635Z,48.92
2022-11-29T20:53:01.903Z,39.53
2022-11-29T20:55:28.385Z,40.22
2022-11-29T20:57:54.906Z,42.83
2022-11-29T21:00:21.875Z,42.65
2022-11-29T21:02:48.567Z,45.10
2022-11-29T21:05:15.413Z,42.60
2022-11-29T21:07:43.392Z,43.85
2022-11-29T21:10:10.438Z,46.17
2022-11-29T21:12:37.261Z,45.00
2022-11-29T21:15:04.821Z,41.15
2022-11-29T21:17:33.685Z,43.53
2022-11-29T21:20:01.198Z,40.13
2022-11-29T21:22:36.170Z,35.22
2022-11-29T21:25:14.331Z,37.00
2022-11-29T21:27:41.479Z,43.78
2022-11-29T21:30:17.939Z,40.97
2022-11-29T21:32:45.248Z,41.95
2022-11-29T21:35:11.952Z,41.83
2022-11-29T21:37:38.767Z,43.08
2022-11-29T21:40:08.416Z,43.05
2022-11-29T21:42:35.364Z,42.78
2022-11-29T21:45:01.898Z,39.42
2022-11-29T21:47:29.072Z,37.00
2022-11-29T21:49:55.966Z,37.45
2022-11-29T21:52:23.169Z,38.97
2022-11-29T21:54:49.925Z,39.80
2022-11-29T21:57:17.764Z,36.58
2022-11-29T21:59:44.292Z,39.05
2022-11-29T22:02:10.954Z,33.55
2022-11-29T22:04:37.627Z,42.53
2022-11-29T22:07:04.118Z,40.65
2022-11-29T22:09:30.609Z,41.55
2022-11-29T22:11:57.135Z,42.70
2022-11-29T22:14:24.993Z,37.53
2022-11-29T22:16:52.635Z,35.95
2022-11-29T22:19:20.984Z,35.75
2022-11-29T22:21:50.387Z,35.40
2022-11-29T22:24:18.913Z,34.38
2022-11-29T22:26:45.935Z,36.95
2022-11-29T22:29:13.225Z,36.40
2022-11-29T22:31:42.021Z,35.33
2022-11-29T22:34:08.578Z,35.47
2022-11-29T22:36:35.729Z,40.60
2022-11-29T22:39:02.611Z,37.35
2022-11-29T22:41:29.163Z,36.65
2022-11-29T22:43:55.745Z,36.25
2022-11-29T22:46:24.352Z,36.10
2022-11-29T22:48:54.336Z,41.08
2022-11-29T22:51:22.829Z,30.92
2022-11-29T22:53:51.287Z,23.60
2022-11-29T22:56:18.645Z,35.72
2022-11-29T22:58:46.022Z,25.98
2022-11-29T23:01:14.453Z,36.40
2022-11-29T23:03:43.620Z,28.33
2022-11-29T23:06:12.994Z,39.50
2022-11-29T23:08:41.333Z,33.60
2022-11-29T23:11:10.576Z,30.15
2022-11-29T23:13:38.442Z,34.20
2022-11-29T23:16:07.079Z,33.88
2022-11-29T23:18:34.039Z,32.22
2022-11-29T23:21:01.745Z,33.30
2022-11-29T23:23:29.928Z,35.63
2022-11-29T23:25:56.668Z,44.03
2022-11-29T23:28:23.317Z,30.17
2022-11-29T23:30:49.989Z,34.47
2022-11-29T23:33:16.815Z,30.52
2022-11-29T23:35:43.304Z,26.58
2022-11-29T23:38:09.852Z,32.58
2022-11-29T23:40:37.684Z,32.33
2022-11-29T23:43:04.170Z,36.78
2022-11-29T23:45:30.703Z,32.63
2022-11-29T23:47:57.263Z,37.88
2022-11-29T23:50:24.418Z,35.40
2022-11-29T23:52:54.298Z,38.60
2022-11-29T23:55:21.333Z,33.22
2022-11-29T23:57:49.607Z,28.67
